Time;durP1;ratioP1;P1;durP2;ratioP2;P2;SDS_P1;SDS_P2;PMS_P1;PMS_P2;Temp;Humidity;BMP_temperature;BMP_pressure;BME280_temperature;BME280_humidity;BME280_pressure;Samples;Min_cycle;Max_cycle;Signal;HPM_P1;HPM_P2
2023/03/20 00:01:56;;;;;;;13.73;5.10;;;8.80;99.90;;;;;;6155314;23;20635;-79
2023/03/20 00:04:24;;;;;;;12.73;5.20;;;8.90;99.90;;;;;;6155151;23;20894;-81
2023/03/20 00:06:51;;;;;;;9.90;5.57;;;8.80;99.90;;;;;;6155364;23;20171;-81
2023/03/20 00:09:18;;;;;;;13.50;6.23;;;8.80;99.90;;;;;;6155542;23;20262;-80
2023/03/20 00:11:48;;;;;;;14.77;5.60;;;8.80;99.90;;;;;;6154087;23;20417;-80
2023/03/20 00:14:18;;;;;;;14.37;5.50;;;8.80;99.90;;;;;;6154834;23;20592;-81
2023/03/20 00:16:46;;;;;;;8.10;4.43;;;8.80;99.90;;;;;;6155254;23;20214;-81
2023/03/20 00:19:17;;;;;;;9.17;4.87;;;8.80;99.90;;;;;;6154083;23;20243;-80
2023/03/20 00:21:45;;;;;;;12.70;5.57;;;8.80;99.90;;;;;;6155269;23;20167;-81
2023/03/20 00:24:12;;;;;;;11.03;5.37;;;8.80;99.90;;;;;;6155424;23;20175;-80
2023/03/20 00:26:40;;;;;;;11.73;5.30;;;8.80;99.90;;;;;;6155083;23;20258;-81
2023/03/20 00:29:17;;;;;;;8.87;5.80;;;8.80;99.90;;;;;;6154771;23;20179;-81
2023/03/20 00:31:44;;;;;;;8.93;5.10;;;8.80;99.90;;;;;;6155279;23;20270;-80
2023/03/20 00:34:14;;;;;;;15.80;6.47;;;8.80;99.90;;;;;;6153481;23;20167;-81
2023/03/20 00:36:41;;;;;;;11.07;5.37;;;8.80;99.90;;;;;;6154845;23;20680;-80
2023/03/20 00:39:08;;;;;;;14.20;6.43;;;8.70;99.90;;;;;;6155013;23;20179;-79
2023/03/20 00:41:43;;;;;;;15.77;6.57;;;8.80;99.90;;;;;;6154870;23;20171;-81
2023/03/20 00:44:23;;;;;;;12.20;6.57;;;8.70;99.90;;;;;;6154314;23;20162;-80
2023/03/20 00:46:53;;;;;;;13.83;5.53;;;8.70;99.90;;;;;;6154615;23;20167;-80
2023/03/20 00:49:22;;;;;;;12.57;5.10;;;8.70;99.90;;;;;;6154052;23;20603;-80
2023/03/20 00:51:49;;;;;;;11.37;5.77;;;8.70;99.90;;;;;;6154967;23;20258;-81
2023/03/20 00:54:17;;;;;;;11.27;4.70;;;8.70;99.90;;;;;;6154056;23;20549;-80
2023/03/20 00:56:49;;;;;;;9.13;4.30;;;8.70;99.90;;;;;;6155536;23;20298;-81
2023/03/20 00:59:21;;;;;;;11.90;4.40;;;8.70;99.90;;;;;;6154221;23;20210;-80
2023/03/20 01:01:48;;;;;;;7.63;3.97;;;8.70;99.90;;;;;;6154038;23;20163;-80
2023/03/20 01:04:18;;;;;;;10.87;4.10;;;8.60;99.90;;;;;;6154480;23;20221;-80
2023/03/20 01:06:45;;;;;;;9.17;4.30;;;8.60;99.90;;;;;;6155146;23;20254;-79
2023/03/20 01:09:12;;;;;;;12.90;3.83;;;8.60;99.90;;;;;;6154002;23;20206;-80
2023/03/20 01:11:40;;;;;;;10.97;4.57;;;8.60;99.90;;;;;;6154538;23;20514;-80
2023/03/20 01:14:13;;;;;;;11.30;4.63;;;8.60;99.90;;;;;;6154690;23;20174;-79
2023/03/20 01:16:42;;;;;;;9.20;3.70;;;8.60;99.90;;;;;;6154124;23;20199;-80
2023/03/20 01:19:15;;;;;;;8.43;4.20;;;8.60;99.90;;;;;;6154922;23;20254;-81
2023/03/20 01:21:42;;;;;;;9.57;3.90;;;8.50;99.90;;;;;;6154068;23;20549;-81
2023/03/20 01:24:09;;;;;;;12.10;4.50;;;8.50;99.90;;;;;;6154220;23;20681;-81
2023/03/20 01:26:38;;;;;;;11.03;3.70;;;8.50;99.90;;;;;;6128746;23;20175;-81
2023/03/20 01:29:16;;;;;;;9.97;4.20;;;8.50;99.90;;;;;;6153624;23;20572;-80
2023/03/20 01:31:45;;;;;;;10.27;4.20;;;8.50;99.90;;;;;;6154449;23;20454;-81
2023/03/20 01:34:12;;;;;;;14.53;4.50;;;8.50;99.90;;;;;;6154649;23;20234;-80
2023/03/20 01:36:40;;;;;;;7.77;3.80;;;8.50;99.90;;;;;;6153944;23;20258;-81
2023/03/20 01:39:07;;;;;;;12.93;4.90;;;8.50;99.90;;;;;;6154554;23;20194;-81
2023/03/20 01:41:34;;;;;;;13.00;5.50;;;8.50;99.90;;;;;;6154756;23;20222;-81
2023/03/20 01:44:16;;;;;;;11.10;5.10;;;8.50;99.90;;;;;;6153945;23;20222;-80
2023/03/20 01:46:45;;;;;;;10.33;3.93;;;8.60;99.90;;;;;;6154244;23;20258;-80
2023/03/20 01:49:45;;;;;;;14.10;4.30;;;8.50;99.90;;;;;;6153518;23;20171;-80
2023/03/20 01:52:12;;;;;;;11.20;3.07;;;8.50;99.90;;;;;;6153382;23;20282;-80
2023/03/20 01:54:39;;;;;;;9.83;3.50;;;8.50;99.90;;;;;;6154365;23;20463;-80
2023/03/20 01:57:14;;;;;;;10.90;3.47;;;8.50;99.90;;;;;;6153825;23;20285;-81
2023/03/20 01:59:46;;;;;;;7.27;2.90;;;8.50;99.90;;;;;;6154142;23;20741;-81
2023/03/20 02:02:18;;;;;;;10.30;3.30;;;8.50;99.90;;;;;;6154338;23;20564;-81
2023/03/20 02:04:50;;;;;;;8.60;2.83;;;8.50;99.90;;;;;;6153796;23;20663;-81
2023/03/20 02:07:21;;;;;;;8.50;3.13;;;8.50;99.90;;;;;;6153824;23;20246;-80
2023/03/20 02:09:48;;;;;;;7.37;2.70;;;8.50;99.90;;;;;;6154447;23;20545;-79
2023/03/20 02:12:16;;;;;;;11.10;3.20;;;8.60;99.90;;;;;;6153628;23;20202;-80
2023/03/20 02:14:44;;;;;;;9.97;2.97;;;8.50;99.90;;;;;;6154473;23;20250;-79
2023/03/20 02:17:11;;;;;;;12.97;3.43;;;8.50;99.90;;;;;;6154133;23;20583;-81
2023/03/20 02:19:50;;;;;;;9.20;3.10;;;8.50;99.90;;;;;;6153691;23;20242;-81
2023/03/20 02:22:47;;;;;;;7.73;2.93;;;8.50;99.90;;;;;;6154283;23;20159;-81
2023/03/20 02:25:43;;;;;;;7.53;2.30;;;8.50;99.90;;;;;;6152778;23;20208;-81
2023/03/20 02:28:33;;;;;;;9.70;2.50;;;8.50;99.90;;;;;;6153922;23;20222;-81
2023/03/20 02:31:20;;;;;;;11.13;2.70;;;8.50;99.90;;;;;;6153573;23;20239;-80
2023/03/20 02:34:18;;;;;;;9.33;3.90;;;8.40;99.90;;;;;;6154265;23;20221;-81
2023/03/20 02:37:20;;;;;;;8.83;3.47;;;8.40;99.90;;;;;;6154649;23;20171;-81
2023/03/20 02:40:07;;;;;;;6.97;2.47;;;8.40;99.90;;;;;;6155246;23;20183;-81
2023/03/20 02:42:41;;;;;;;10.07;2.60;;;8.40;99.90;;;;;;6156206;23;20195;-80
2023/03/20 02:45:17;;;;;;;9.43;2.43;;;8.40;99.90;;;;;;6156453;23;20191;-80
2023/03/20 02:47:51;;;;;;;9.40;3.07;;;8.30;99.90;;;;;;6155363;23;20195;-80
2023/03/20 02:50:27;;;;;;;9.27;2.60;;;8.40;99.90;;;;;;6155476;23;20243;-80
2023/03/20 02:53:05;;;;;;;5.37;2.43;;;8.30;99.90;;;;;;6155560;23;20183;-81
2023/03/20 02:55:38;;;;;;;8.77;3.17;;;8.30;99.90;;;;;;6155740;23;20198;-81
2023/03/20 02:58:14;;;;;;;5.93;2.50;;;8.30;99.90;;;;;;6156140;23;20282;-81
2023/03/20 03:00:48;;;;;;;5.50;3.50;;;8.40;99.90;;;;;;6155196;23;20205;-80
2023/03/20 03:03:20;;;;;;;7.63;3.07;;;8.30;99.90;;;;;;6155861;23;20631;-80
2023/03/20 03:05:50;;;;;;;4.90;2.80;;;8.40;99.90;;;;;;6156140;23;20262;-80
2023/03/20 03:08:23;;;;;;;8.43;2.60;;;8.30;99.90;;;;;;6155079;23;20195;-81
2023/03/20 03:10:54;;;;;;;11.07;3.10;;;8.40;99.90;;;;;;6155825;23;20271;-80
2023/03/20 03:13:27;;;;;;;11.00;3.27;;;8.40;99.90;;;;;;6155682;23;20222;-81
2023/03/20 03:16:01;;;;;;;6.00;3.43;;;8.40;99.90;;;;;;6155371;23;20542;-80
2023/03/20 03:18:31;;;;;;;7.27;2.73;;;8.40;99.90;;;;;;6155789;23;20242;-79
2023/03/20 03:21:00;;;;;;;10.30;3.83;;;8.40;99.90;;;;;;6155426;23;20182;-79
2023/03/20 03:23:31;;;;;;;14.07;4.20;;;8.30;99.90;;;;;;6154842;23;20266;-80
2023/03/20 03:26:00;;;;;;;9.23;3.80;;;8.40;99.90;;;;;;6156018;23;20251;-80
2023/03/20 03:28:35;;;;;;;13.83;4.53;;;8.30;99.90;;;;;;6154836;23;20179;-80
2023/03/20 03:31:05;;;;;;;10.63;4.57;;;8.40;99.90;;;;;;6155723;23;20241;-80
2023/03/20 03:33:35;;;;;;;15.17;5.03;;;8.40;99.90;;;;;;6156062;23;20222;-80
2023/03/20 03:36:11;;;;;;;16.97;5.13;;;8.40;99.90;;;;;;6154590;23;20182;-80
2023/03/20 03:38:46;;;;;;;13.30;4.73;;;8.30;99.90;;;;;;6155558;23;20168;-79
2023/03/20 03:41:25;;;;;;;11.77;5.50;;;8.30;99.90;;;;;;6156181;23;20162;-79
2023/03/20 03:44:00;;;;;;;12.97;5.27;;;8.30;99.90;;;;;;6154799;23;20239;-79
2023/03/20 03:46:34;;;;;;;8.70;4.90;;;8.20;99.90;;;;;;6155767;23;20242;-80
2023/03/20 03:49:03;;;;;;;10.87;5.07;;;8.20;99.90;;;;;;6156156;23;20187;-80
2023/03/20 03:51:34;;;;;;;14.87;5.80;;;8.20;99.90;;;;;;6154359;23;20206;-80
2023/03/20 03:54:06;;;;;;;9.70;4.50;;;8.30;99.90;;;;;;6156069;23;20163;-79
2023/03/20 03:56:35;;;;;;;11.77;5.63;;;8.20;99.90;;;;;;6154574;23;20821;-79
2023/03/20 03:59:05;;;;;;;13.47;5.30;;;8.20;99.90;;;;;;6155604;23;20190;-80
2023/03/20 04:01:34;;;;;;;8.43;4.20;;;8.20;99.90;;;;;;6155423;23;20431;-79
2023/03/20 04:04:07;;;;;;;14.20;5.23;;;8.20;99.90;;;;;;6154618;23;20199;-80
2023/03/20 04:06:34;;;;;;;11.30;4.80;;;8.20;99.90;;;;;;6155623;23;20489;-78
2023/03/20 04:09:01;;;;;;;7.73;4.53;;;8.20;99.90;;;;;;6155245;23;20229;-78
2023/03/20 04:11:29;;;;;;;10.27;5.20;;;8.10;99.90;;;;;;6154988;23;20182;-78
2023/03/20 04:13:56;;;;;;;11.93;5.53;;;8.20;99.90;;;;;;6155552;23;20292;-80
2023/03/20 04:16:25;;;;;;;10.87;5.03;;;8.10;99.90;;;;;;6154881;23;20499;-78
2023/03/20 04:18:54;;;;;;;10.23;4.60;;;8.10;99.90;;;;;;6154410;23;20218;-78
2023/03/20 04:21:21;;;;;;;8.37;5.37;;;8.10;99.90;;;;;;6154205;23;20179;-78
2023/03/20 04:23:48;;;;;;;13.17;6.07;;;8.10;99.90;;;;;;6154992;23;20207;-78
2023/03/20 04:26:15;;;;;;;13.63;7.23;;;8.10;99.90;;;;;;6154555;23;20198;-78
2023/03/20 04:28:43;;;;;;;15.00;6.87;;;8.10;99.90;;;;;;6155015;23;20191;-77
2023/03/20 04:31:11;;;;;;;14.63;7.60;;;8.10;99.90;;;;;;6154583;23;20168;-78
2023/03/20 04:33:38;;;;;;;21.83;9.10;;;8.10;99.90;;;;;;6153847;23;20196;-78
2023/03/20 04:36:06;;;;;;;18.73;8.47;;;8.10;99.90;;;;;;6155120;23;20179;-78
2023/03/20 04:38:33;;;;;;;17.33;7.37;;;8.10;99.90;;;;;;6154892;23;20175;-78
2023/03/20 04:41:00;;;;;;;15.30;8.40;;;8.10;99.90;;;;;;6153988;23;20226;-78
2023/03/20 04:43:27;;;;;;;14.80;7.40;;;8.10;99.90;;;;;;6154648;23;20214;-78
2023/03/20 04:45:55;;;;;;;18.00;7.97;;;8.10;99.90;;;;;;6154059;23;20167;-77
2023/03/20 04:48:22;;;;;;;16.33;7.90;;;8.10;99.90;;;;;;6154791;23;20254;-76
2023/03/20 04:50:49;;;;;;;16.43;8.13;;;8.10;99.90;;;;;;6154586;23;20254;-79
2023/03/20 04:53:17;;;;;;;16.10;8.00;;;8.10;99.90;;;;;;6153967;23;20187;-78
2023/03/20 04:55:44;;;;;;;12.93;7.17;;;8.10;99.90;;;;;;6155254;23;20207;-78
2023/03/20 04:58:11;;;;;;;14.93;7.97;;;8.10;99.90;;;;;;6154967;23;20250;-79
2023/03/20 05:00:38;;;;;;;15.93;8.27;;;8.10;99.90;;;;;;6153123;23;20171;-79
2023/03/20 05:03:07;;;;;;;14.43;7.30;;;8.10;99.90;;;;;;6154846;23;20204;-77
2023/03/20 05:05:36;;;;;;;14.67;7.50;;;8.10;99.90;;;;;;6154554;23;20242;-77
2023/03/20 05:08:04;;;;;;;12.33;7.27;;;8.10;99.90;;;;;;6154577;23;20176;-77
2023/03/20 05:10:31;;;;;;;16.37;7.57;;;8.10;99.90;;;;;;6154684;23;20528;-77
2023/03/20 05:12:58;;;;;;;14.67;8.27;;;8.10;99.90;;;;;;6154144;23;20198;-78
2023/03/20 05:15:25;;;;;;;14.57;7.83;;;8.10;99.90;;;;;;6153934;23;20172;-77
2023/03/20 05:17:53;;;;;;;17.90;9.27;;;8.10;99.90;;;;;;6153958;23;20203;-78
2023/03/20 05:20:22;;;;;;;24.53;8.73;;;8.10;99.90;;;;;;6154208;23;20788;-77
2023/03/20 05:22:50;;;;;;;17.00;8.40;;;8.10;99.90;;;;;;6153639;23;20171;-80
2023/03/20 05:25:18;;;;;;;19.37;9.00;;;8.10;99.90;;;;;;6154364;23;20569;-80
2023/03/20 05:27:46;;;;;;;16.70;8.43;;;8.10;99.90;;;;;;6154175;23;20270;-79
2023/03/20 05:30:14;;;;;;;16.97;8.10;;;8.20;99.90;;;;;;6153803;23;20195;-78
2023/03/20 05:32:42;;;;;;;17.67;8.57;;;8.20;99.90;;;;;;6153925;23;20242;-78
2023/03/20 05:35:10;;;;;;;17.30;9.30;;;8.20;99.90;;;;;;6153739;23;20604;-80
2023/03/20 05:37:38;;;;;;;17.13;9.13;;;8.20;99.90;;;;;;6154488;23;20194;-78
2023/03/20 05:40:07;;;;;;;19.50;8.53;;;8.20;99.90;;;;;;6154646;23;20789;-78
2023/03/20 05:42:34;;;;;;;19.33;8.93;;;8.20;99.90;;;;;;6152568;23;20222;-77
2023/03/20 05:45:01;;;;;;;18.87;8.73;;;8.20;99.90;;;;;;6154583;23;20221;-78
2023/03/20 05:47:28;;;;;;;18.40;9.50;;;8.30;99.90;;;;;;6154301;23;20227;-79
2023/03/20 05:49:54;;;;;;;17.77;8.53;;;8.20;99.90;;;;;;6154161;23;20291;-77
2023/03/20 05:52:21;;;;;;;17.70;8.13;;;8.20;99.90;;;;;;6153914;23;20206;-78
2023/03/20 05:54:50;;;;;;;17.37;8.33;;;8.30;99.90;;;;;;6154427;23;20178;-78
2023/03/20 05:57:17;;;;;;;16.13;7.90;;;8.30;99.90;;;;;;6153111;23;20278;-79
2023/03/20 05:59:44;;;;;;;19.20;7.83;;;8.20;99.90;;;;;;6154772;23;20262;-78
2023/03/20 06:02:12;;;;;;;18.10;7.83;;;8.20;99.90;;;;;;6153583;23;20167;-79
2023/03/20 06:04:39;;;;;;;19.43;7.90;;;8.20;99.90;;;;;;6153271;23;20203;-79
2023/03/20 06:07:06;;;;;;;22.57;9.30;;;8.20;99.90;;;;;;6154516;23;20193;-79
2023/03/20 06:09:33;;;;;;;22.37;8.10;;;8.20;99.90;;;;;;6153976;23;20175;-80
2023/03/20 06:12:01;;;;;;;22.83;8.30;;;8.30;99.90;;;;;;6153796;23;20610;-80
2023/03/20 06:14:28;;;;;;;13.43;7.40;;;8.30;99.90;;;;;;6156268;23;20456;-80
2023/03/20 06:16:56;;;;;;;18.43;8.07;;;8.30;99.90;;;;;;6156609;23;20221;-81
2023/03/20 06:19:22;;;;;;;17.00;6.90;;;8.30;99.90;;;;;;6154527;23;20217;-80
2023/03/20 06:21:50;;;;;;;21.83;7.70;;;8.30;99.90;;;;;;6155996;23;20250;-80
2023/03/20 06:24:17;;;;;;;17.33;8.13;;;8.30;99.90;;;;;;6155618;23;20603;-80
2023/03/20 06:26:44;;;;;;;21.07;8.40;;;8.30;99.90;;;;;;6155906;23;20711;-81
2023/03/20 06:29:13;;;;;;;26.27;7.53;;;8.30;99.90;;;;;;6155598;23;20434;-80
2023/03/20 06:31:40;;;;;;;18.20;8.10;;;8.40;99.90;;;;;;6155353;23;20167;-80
2023/03/20 06:34:07;;;;;;;17.27;7.40;;;8.40;99.90;;;;;;6156492;23;20195;-79
2023/03/20 06:36:34;;;;;;;25.00;9.03;;;8.40;99.90;;;;;;6156036;23;20171;-78
2023/03/20 06:39:01;;;;;;;20.00;7.30;;;8.40;99.90;;;;;;6154742;23;20180;-80
2023/03/20 06:41:27;;;;;;;22.23;7.43;;;8.50;99.90;;;;;;6156106;23;20207;-81
2023/03/20 06:43:55;;;;;;;18.07;7.80;;;8.50;99.90;;;;;;6156049;23;20171;-79
2023/03/20 06:46:23;;;;;;;15.53;6.70;;;8.40;99.90;;;;;;6155071;23;20228;-80
2023/03/20 06:48:50;;;;;;;21.33;7.43;;;8.40;99.90;;;;;;6156042;23;20199;-80
2023/03/20 06:51:18;;;;;;;18.87;8.13;;;8.40;99.90;;;;;;6155381;23;20172;-80
2023/03/20 06:53:45;;;;;;;19.10;6.30;;;8.50;99.90;;;;;;6154730;23;20519;-80
2023/03/20 06:56:12;;;;;;;18.50;7.37;;;8.50;99.90;;;;;;6156433;23;20226;-78
2023/03/20 06:58:39;;;;;;;21.37;7.73;;;8.50;99.90;;;;;;6156173;23;20202;-79
2023/03/20 07:01:10;;;;;;;20.47;6.23;;;8.50;99.90;;;;;;6155644;23;20725;-78
2023/03/20 07:03:38;;;;;;;21.40;6.03;;;8.50;99.90;;;;;;6155666;23;20230;-79
2023/03/20 07:06:06;;;;;;;22.27;6.57;;;8.50;99.90;;;;;;6156311;23;20205;-77
2023/03/20 07:08:34;;;;;;;22.33;6.63;;;8.50;99.90;;;;;;6154577;23;20706;-78
2023/03/20 07:11:01;;;;;;;12.53;5.90;;;8.50;99.90;;;;;;6156261;23;20170;-79
2023/03/20 07:13:28;;;;;;;19.27;6.37;;;8.50;99.90;;;;;;6154820;23;20195;-78
2023/03/20 07:15:57;;;;;;;18.97;5.90;;;8.60;99.90;;;;;;6155742;23;20171;-79
2023/03/20 07:18:24;;;;;;;20.67;6.13;;;8.60;99.90;;;;;;6155027;23;20882;-80
2023/03/20 07:20:53;;;;;;;20.90;5.50;;;8.60;99.90;;;;;;6154971;23;20214;-81
2023/03/20 07:23:20;;;;;;;16.77;4.70;;;8.60;99.90;;;;;;6155707;23;20238;-80
2023/03/20 07:25:47;;;;;;;14.23;5.20;;;8.70;99.90;;;;;;6155664;23;20176;-80
2023/03/20 07:28:14;;;;;;;13.90;5.13;;;8.70;99.90;;;;;;6155060;23;20500;-81
2023/03/20 07:30:41;;;;;;;13.60;4.93;;;8.70;99.90;;;;;;6155756;23;20623;-81
2023/03/20 07:33:08;;;;;;;17.87;5.30;;;8.70;99.90;;;;;;6155909;23;20631;-81
2023/03/20 07:35:35;;;;;;;14.00;4.50;;;8.70;99.90;;;;;;6154818;23;20175;-80
2023/03/20 07:38:03;;;;;;;13.57;3.87;;;8.80;99.90;;;;;;6155949;23;20175;-81
2023/03/20 07:40:30;;;;;;;14.70;5.27;;;8.80;99.90;;;;;;6155883;23;20171;-81
2023/03/20 07:42:57;;;;;;;17.70;4.80;;;8.80;99.90;;;;;;6155037;23;20171;-81
2023/03/20 07:45:24;;;;;;;16.80;4.53;;;8.80;99.90;;;;;;6155839;23;20607;-81
2023/03/20 07:47:51;;;;;;;18.97;4.17;;;8.80;99.90;;;;;;6155824;23;20182;-83
2023/03/20 07:50:19;;;;;;;16.17;4.47;;;8.80;99.90;;;;;;6155267;23;20243;-82
2023/03/20 07:52:50;;;;;;;19.63;5.00;;;8.80;99.90;;;;;;6156294;23;20243;-82
2023/03/20 07:55:18;;;;;;;14.97;4.63;;;8.80;99.90;;;;;;6153638;23;20167;-82
2023/03/20 07:57:45;;;;;;;18.13;4.70;;;8.80;99.90;;;;;;6155542;23;20502;-78
2023/03/20 08:00:14;;;;;;;18.27;4.27;;;8.90;99.90;;;;;;6155527;23;20251;-80
2023/03/20 08:02:41;;;;;;;20.43;5.13;;;8.90;99.90;;;;;;6153644;23;20168;-81
2023/03/20 08:05:08;;;;;;;16.30;5.07;;;8.80;99.90;;;;;;6155233;23;20433;-83
2023/03/20 08:07:35;;;;;;;17.23;5.30;;;8.90;99.90;;;;;;6156350;23;20251;-80
2023/03/20 08:10:03;;;;;;;12.70;5.10;;;8.90;99.90;;;;;;6156225;23;20926;-83
2023/03/20 08:12:32;;;;;;;18.80;5.30;;;8.90;99.90;;;;;;6156223;23;20210;-83
2023/03/20 08:14:58;;;;;;;18.53;4.60;;;8.90;99.90;;;;;;6156569;23;20332;-82
2023/03/20 08:17:25;;;;;;;18.47;4.73;;;9.00;99.90;;;;;;6155180;23;20173;-81
2023/03/20 08:19:52;;;;;;;20.70;5.53;;;9.00;99.90;;;;;;6156942;23;20254;-83
2023/03/20 08:22:19;;;;;;;21.87;7.03;;;9.00;99.90;;;;;;6155598;23;20267;-81
2023/03/20 08:24:46;;;;;;;18.03;4.40;;;9.10;99.90;;;;;;6155326;23;20246;-81
2023/03/20 08:27:13;;;;;;;16.83;4.93;;;9.10;99.90;;;;;;6155278;23;20247;-80
2023/03/20 08:29:41;;;;;;;15.33;4.57;;;9.10;99.90;;;;;;6153600;23;20172;-78
2023/03/20 08:32:08;;;;;;;22.13;4.97;;;9.10;99.90;;;;;;6154518;23;20254;-79
2023/03/20 08:34:35;;;;;;;17.17;4.97;;;9.10;99.90;;;;;;6155005;23;20198;-84
2023/03/20 08:37:03;;;;;;;23.83;4.70;;;9.10;99.90;;;;;;6155742;23;20254;-82
2023/03/20 08:39:31;;;;;;;12.57;4.23;;;9.10;99.90;;;;;;6154934;23;20171;-80
2023/03/20 08:41:58;;;;;;;21.77;5.47;;;9.10;99.90;;;;;;6154757;23;20639;-83
2023/03/20 08:44:28;;;;;;;12.83;4.00;;;9.10;99.90;;;;;;6154982;23;20170;-83
2023/03/20 08:46:57;;;;;;;20.40;4.97;;;9.20;99.90;;;;;;6155107;23;20447;-80
2023/03/20 08:49:24;;;;;;;14.30;3.73;;;9.20;99.90;;;;;;6155311;23;20222;-79
2023/03/20 08:51:51;;;;;;;14.13;4.47;;;9.20;99.90;;;;;;6156152;23;20185;-81
2023/03/20 08:54:18;;;;;;;16.33;4.77;;;9.20;99.90;;;;;;6154159;23;20195;-79
2023/03/20 08:56:45;;;;;;;21.63;4.93;;;9.20;99.90;;;;;;6154972;23;20222;-80
2023/03/20 08:59:12;;;;;;;17.80;4.40;;;9.20;99.90;;;;;;6154475;23;20242;-78
2023/03/20 09:01:39;;;;;;;15.90;3.80;;;9.20;99.90;;;;;;6154824;23;20230;-81
2023/03/20 09:04:07;;;;;;;15.67;3.97;;;9.20;99.90;;;;;;6151937;23;20218;-80
2023/03/20 09:06:37;;;;;;;15.17;4.20;;;9.30;99.90;;;;;;6151121;23;20628;-84
2023/03/20 09:09:04;;;;;;;14.97;3.83;;;9.30;99.90;;;;;;6155669;23;20202;-82
2023/03/20 09:11:32;;;;;;;15.50;4.00;;;9.40;99.90;;;;;;6155878;23;20171;-83
2023/03/20 09:13:59;;;;;;;15.10;4.43;;;9.40;99.90;;;;;;6152601;23;20552;-82
2023/03/20 09:16:26;;;;;;;18.20;4.07;;;9.40;99.90;;;;;;6155814;23;20250;-82
2023/03/20 09:18:54;;;;;;;15.57;4.47;;;9.30;99.90;;;;;;6154487;23;20172;-81
2023/03/20 09:21:22;;;;;;;11.13;4.53;;;9.40;99.90;;;;;;6153778;23;20592;-83
2023/03/20 09:23:49;;;;;;;20.23;6.07;;;9.40;99.90;;;;;;6154713;23;20172;-82
2023/03/20 09:26:16;;;;;;;16.20;5.50;;;9.40;99.90;;;;;;6154670;23;20167;-83
2023/03/20 09:28:43;;;;;;;15.07;5.00;;;9.40;99.90;;;;;;6154305;23;20175;-82
2023/03/20 09:31:10;;;;;;;17.13;4.93;;;9.40;99.90;;;;;;6155156;23;20175;-82
2023/03/20 09:33:37;;;;;;;11.50;4.63;;;9.40;99.90;;;;;;6155046;23;20198;-86
2023/03/20 09:36:06;;;;;;;14.60;5.00;;;9.40;99.90;;;;;;6154784;23;20241;-80
2023/03/20 09:38:35;;;;;;;14.23;5.33;;;9.40;99.90;;;;;;6154768;23;20190;-83
2023/03/20 09:41:03;;;;;;;15.77;4.57;;;9.40;99.90;;;;;;6154999;23;20178;-82
2023/03/20 09:43:45;;;;;;;13.27;5.13;;;9.40;99.90;;;;;;6154235;23;20205;-80
2023/03/20 09:46:22;;;;;;;14.30;5.13;;;9.40;99.90;;;;;;6154819;23;20163;-81
2023/03/20 09:48:57;;;;;;;16.53;6.00;;;9.40;99.90;;;;;;6153503;23;20209;-82
2023/03/20 09:51:31;;;;;;;10.23;4.90;;;9.40;99.90;;;;;;6153816;23;20166;-81
2023/03/20 09:54:06;;;;;;;13.87;5.00;;;9.50;99.90;;;;;;6155322;23;20265;-82
2023/03/20 09:56:34;;;;;;;15.93;5.37;;;9.50;99.90;;;;;;6154519;23;20225;-83
2023/03/20 09:59:03;;;;;;;15.87;5.43;;;9.50;99.90;;;;;;6155549;23;20217;-83
2023/03/20 10:01:35;;;;;;;15.77;5.73;;;9.50;99.90;;;;;;6155276;23;20182;-74
2023/03/20 10:04:08;;;;;;;14.97;5.57;;;9.50;99.90;;;;;;6153259;23;20629;-79
2023/03/20 10:06:35;;;;;;;14.13;6.17;;;9.50;99.90;;;;;;6155001;23;20167;-78
2023/03/20 10:09:14;;;;;;;14.77;6.37;;;9.50;99.90;;;;;;6154467;23;20740;-81
2023/03/20 10:12:02;;;;;;;15.33;6.97;;;9.50;99.90;;;;;;6154780;23;20246;-81
2023/03/20 10:14:37;;;;;;;11.47;6.03;;;9.50;99.90;;;;;;6151954;23;20751;-79
2023/03/20 10:17:20;;;;;;;13.60;7.33;;;9.60;99.90;;;;;;6153874;23;20198;-80
2023/03/20 10:19:52;;;;;;;12.80;8.57;;;9.60;99.90;;;;;;6153993;23;20198;-82
2023/03/20 10:22:24;;;;;;;18.10;7.97;;;9.50;99.90;;;;;;6153710;23;20185;-79
2023/03/20 10:24:59;;;;;;;17.37;8.63;;;9.50;99.90;;;;;;6153420;23;20166;-82
2023/03/20 10:27:31;;;;;;;16.07;8.73;;;9.60;99.90;;;;;;6154740;23;20226;-80
2023/03/20 10:30:13;;;;;;;14.70;8.50;;;9.50;99.90;;;;;;6154883;23;20168;-81
2023/03/20 10:32:47;;;;;;;13.33;8.73;;;9.50;99.90;;;;;;6153960;23;20188;-82
2023/03/20 10:35:21;;;;;;;14.97;9.67;;;9.50;99.90;;;;;;6154394;23;20249;-82
2023/03/20 10:38:01;;;;;;;16.33;9.00;;;9.60;99.90;;;;;;6154611;23;20199;-76
2023/03/20 10:40:34;;;;;;;15.00;10.13;;;9.60;99.90;;;;;;6153581;23;20164;-75
2023/03/20 10:43:03;;;;;;;16.47;9.90;;;9.60;99.90;;;;;;6153799;23;20167;-80
2023/03/20 10:45:39;;;;;;;14.80;10.97;;;9.60;99.90;;;;;;6152672;23;20211;-78
2023/03/20 10:48:13;;;;;;;15.10;10.10;;;9.60;99.90;;;;;;6153124;23;20167;-74
2023/03/20 10:50:45;;;;;;;14.53;10.63;;;9.70;99.90;;;;;;6153826;23;20172;-77
2023/03/20 10:53:23;;;;;;;14.50;10.03;;;9.70;99.90;;;;;;6153687;23;20502;-80
2023/03/20 10:55:54;;;;;;;19.10;10.17;;;9.80;99.90;;;;;;6154440;23;20502;-80
2023/03/20 10:58:24;;;;;;;14.10;10.07;;;9.70;99.90;;;;;;6155024;23;20242;-79
2023/03/20 11:00:54;;;;;;;18.30;10.97;;;9.70;99.90;;;;;;6155173;23;20179;-76
2023/03/20 11:03:23;;;;;;;18.13;11.03;;;9.70;99.90;;;;;;6154970;23;20253;-81
2023/03/20 11:05:56;;;;;;;19.27;11.30;;;9.70;99.90;;;;;;6155455;23;20179;-79
2023/03/20 11:08:25;;;;;;;15.33;10.93;;;9.70;99.90;;;;;;6155987;23;20476;-80
2023/03/20 11:11:01;;;;;;;16.13;11.20;;;9.80;99.90;;;;;;6155902;23;20195;-79
2023/03/20 11:13:32;;;;;;;13.43;10.20;;;9.80;99.90;;;;;;6154882;23;20567;-81
2023/03/20 11:16:11;;;;;;;15.97;10.60;;;9.80;99.90;;;;;;6155907;23;20258;-81
2023/03/20 11:18:37;;;;;;;15.87;11.03;;;9.80;99.90;;;;;;6155291;23;20162;-80
2023/03/20 11:21:05;;;;;;;14.83;10.03;;;9.80;99.90;;;;;;6155739;23;20180;-82
2023/03/20 11:23:34;;;;;;;17.47;11.07;;;9.80;99.90;;;;;;6157466;23;20230;-83
2023/03/20 11:26:04;;;;;;;15.13;10.47;;;9.80;99.90;;;;;;6157640;23;20171;-84
2023/03/20 11:28:34;;;;;;;13.63;10.20;;;9.70;99.90;;;;;;6157300;23;20168;-84
2023/03/20 11:31:05;;;;;;;17.13;11.80;;;9.70;99.90;;;;;;6157721;23;20254;-83
2023/03/20 11:33:37;;;;;;;14.80;10.73;;;9.80;99.90;;;;;;6157227;23;20549;-84
2023/03/20 11:36:11;;;;;;;16.63;10.43;;;9.80;99.90;;;;;;6157131;23;20395;-83
2023/03/20 11:38:44;;;;;;;14.20;10.50;;;9.80;99.90;;;;;;6157513;23;20199;-83
2023/03/20 11:41:24;;;;;;;15.33;10.60;;;9.80;99.90;;;;;;6156975;23;20164;-85
2023/03/20 11:43:51;;;;;;;13.97;9.87;;;9.80;99.90;;;;;;6157471;23;20170;-83
2023/03/20 11:46:21;;;;;;;13.90;10.30;;;9.80;99.90;;;;;;6157362;23;20262;-85
2023/03/20 11:49:02;;;;;;;16.57;10.73;;;9.80;99.90;;;;;;6157066;23;20726;-85
2023/03/20 11:51:29;;;;;;;12.97;9.90;;;9.80;99.90;;;;;;6156816;23;20174;-81
2023/03/20 11:54:01;;;;;;;14.70;9.30;;;9.80;99.90;;;;;;6156941;23;20572;-85
2023/03/20 11:56:31;;;;;;;12.03;9.53;;;9.80;99.90;;;;;;6156946;23;20223;-83
2023/03/20 11:59:01;;;;;;;14.17;9.63;;;9.80;99.90;;;;;;6157303;23;20171;-82
2023/03/20 12:01:36;;;;;;;11.83;8.90;;;9.80;99.90;;;;;;6193681;23;20264;-85
2023/03/20 12:04:06;;;;;;;12.27;8.60;;;9.80;99.90;;;;;;6216905;23;20166;-84
2023/03/20 12:06:46;;;;;;;10.47;8.13;;;9.80;99.90;;;;;;6216145;23;20193;-85
2023/03/20 12:09:26;;;;;;;8.57;7.33;;;9.80;99.90;;;;;;6214857;23;20886;-81
2023/03/20 12:11:58;;;;;;;7.83;6.97;;;9.80;99.90;;;;;;6215412;23;20155;-80
2023/03/20 12:14:32;;;;;;;9.50;6.83;;;9.80;99.90;;;;;;6216388;23;20310;-82
2023/03/20 12:17:19;;;;;;;8.80;6.97;;;9.80;99.90;;;;;;6215086;23;20176;-84
2023/03/20 12:19:49;;;;;;;10.93;7.83;;;9.80;99.90;;;;;;6216347;23;20201;-83
2023/03/20 12:22:23;;;;;;;7.50;6.47;;;9.80;99.90;;;;;;6215339;23;20564;-79
2023/03/20 12:24:56;;;;;;;9.20;6.13;;;9.80;99.90;;;;;;6216131;23;20473;-78
2023/03/20 12:27:30;;;;;;;9.10;7.00;;;9.80;99.90;;;;;;6215250;23;20233;-81
2023/03/20 12:30:04;;;;;;;11.07;7.40;;;9.80;99.90;;;;;;6212965;23;20639;-82
2023/03/20 12:32:36;;;;;;;9.27;6.03;;;9.70;99.90;;;;;;6213529;23;20241;-81
2023/03/20 12:35:10;;;;;;;8.97;6.80;;;9.80;99.90;;;;;;6214765;23;20190;-81
2023/03/20 12:37:38;;;;;;;8.30;6.30;;;9.70;99.90;;;;;;6214703;23;20252;-83
2023/03/20 12:40:06;;;;;;;12.70;6.07;;;9.80;99.90;;;;;;6214837;23;20290;-81
2023/03/20 12:42:45;;;;;;;10.23;6.93;;;9.80;99.90;;;;;;6213994;23;20180;-82
2023/03/20 12:45:17;;;;;;;7.93;5.70;;;9.80;99.90;;;;;;6214248;23;20230;-81
2023/03/20 12:48:15;;;;;;;7.87;5.37;;;9.80;99.90;;;;;;6215657;23;20525;-83
2023/03/20 12:50:45;;;;;;;9.87;6.73;;;9.80;99.90;;;;;;6214859;23;20172;-81
2023/03/20 12:53:34;;;;;;;8.80;5.53;;;9.80;99.90;;;;;;6216088;23;20201;-85
2023/03/20 12:56:13;;;;;;;6.27;4.80;;;9.80;99.90;;;;;;6216429;23;20418;-87
2023/03/20 12:58:47;;;;;;;13.47;5.70;;;9.80;99.90;;;;;;6216561;23;20170;-86
2023/03/20 13:01:19;;;;;;;9.87;5.50;;;9.80;99.90;;;;;;6216118;23;20237;-83
2023/03/20 13:04:13;;;;;;;11.43;5.47;;;9.80;99.90;;;;;;6216162;23;20221;-83
2023/03/20 13:06:50;;;;;;;9.57;5.10;;;9.80;99.90;;;;;;6216631;23;20212;-85